Report METAR

 

LIML - Milano/Linate, Italy
Distance from station: NO 27km
Dati ricevuti: 25/01/2021 20:50
Sereno
Sereno
 Vento da NO
Vento: NO 13 km/h
Temperatura: 6°C
Temperatura Vento: 3°C
P.to Rugiada: -7°C
Umidità: 39%
Barometro: 1006 hPa
Summary: Sereno
Visibility: superiore a 10 km
2021/01/25 19:50 LIML 251950Z 32007KT CAVOK 06/M07 Q1006 NOSIG
LIME - Bergamo/Orio Ser, Italy
Distance from station: NNE 43km
Dati ricevuti: 25/01/2021 20:50
Sereno
Sereno
 Vento da NNE
Vento: NNE 6 km/h
Temperatura: 1°C
P.to Rugiada: -5°C
Umidità: 65%
Barometro: 1006 hPa
Summary: Sereno
Visibility: superiore a 10 km
2021/01/25 19:50 LIME 251950Z 02003KT 330V060 CAVOK 01/M05 Q1006 NOSIG
 
LIMS - Piacenza, it-Afb, Italy
Distance from station: SSE 45km
Dati ricevuti: 25/01/2021 18:55
DATI Obsoleti
Sereno
Sereno
 Vento da OSO
Vento: OSO 13 km/h
Temperatura: 2°C
Temperatura Vento: -1°C
P.to Rugiada: 2°C
Umidità: 100%
Barometro: 1003 hPa
Summary: Sereno
Visibility: superiore a 10 km
2021/01/25 17:55 LIMS 251755Z 25007KT CAVOK 02/02 Q1003
LIPO - Brescia/Montichi, Italy
Distance from station: ENE 65km
Dati ricevuti: 25/01/2021 20:50
Sereno
Sereno
 Vento da Variabile
Vento: Variabile 2 km/h
Temperatura: -1°C
P.to Rugiada: -2°C
Umidità: 93%
Barometro: 1005 hPa
Nuvole: Sereno
Visibility: 10 km
2021/01/25 19:50 LIPO 251950Z AUTO VRB01KT 9999 NCD M01/M02 Q1005